createdAt,value
2022-08-01T00:02:02.104Z,4.93
2022-08-01T00:04:28.583Z,4.32
2022-08-01T00:06:55.002Z,3.95
2022-08-01T00:09:24.270Z,3.78
2022-08-01T00:11:59.956Z,5.00
2022-08-01T00:14:32.692Z,4.22
2022-08-01T00:17:05.163Z,4.88
2022-08-01T00:19:34.100Z,4.22
2022-08-01T00:22:00.791Z,4.63
2022-08-01T00:24:27.258Z,5.53
2022-08-01T00:26:53.671Z,4.70
2022-08-01T00:30:13.062Z,5.13
2022-08-01T00:32:07.173Z,5.30
2022-08-01T00:34:34.514Z,5.40
2022-08-01T00:37:00.898Z,4.65
2022-08-01T00:39:27.262Z,5.22
2022-08-01T00:42:01.770Z,5.78
2022-08-01T00:44:28.267Z,5.57
2022-08-01T00:46:54.832Z,6.03
2022-08-01T00:49:21.550Z,5.15
2022-08-01T00:51:48.194Z,5.57
2022-08-01T00:54:16.717Z,5.53
2022-08-01T00:56:44.511Z,4.97
2022-08-01T00:59:14.030Z,4.95
2022-08-01T01:01:46.539Z,6.20
2022-08-01T01:04:13.547Z,5.85
2022-08-01T01:07:10.472Z,5.13
2022-08-01T01:09:59.613Z,5.70
2022-08-01T01:12:35.908Z,4.80
2022-08-01T01:15:07.569Z,5.22
2022-08-01T01:17:51.160Z,5.70
2022-08-01T01:20:21.665Z,5.20
2022-08-01T01:22:54.090Z,5.68
2022-08-01T01:25:42.558Z,5.65
2022-08-01T01:28:27.556Z,5.53
2022-08-01T01:30:57.185Z,5.05
2022-08-01T01:33:26.257Z,5.82
2022-08-01T01:35:57.706Z,5.45
2022-08-01T01:38:30.280Z,6.38
2022-08-01T01:40:58.719Z,5.60
2022-08-01T01:43:33.656Z,5.88
2022-08-01T01:46:05.565Z,6.40
2022-08-01T01:51:01.422Z,5.72
2022-08-01T01:53:29.593Z,5.03
2022-08-01T01:55:58.862Z,5.43
2022-08-01T01:58:27.287Z,5.45
2022-08-01T02:00:55.466Z,5.32
2022-08-01T02:03:23.038Z,4.65
2022-08-01T02:05:52.882Z,5.15
2022-08-01T02:08:19.678Z,4.50
2022-08-01T02:11:07.276Z,5.18
2022-08-01T02:13:37.695Z,5.15
2022-08-01T02:16:05.045Z,5.97
2022-08-01T02:18:32.136Z,5.47
2022-08-01T02:21:01.154Z,5.57
2022-08-01T02:23:34.792Z,6.10
2022-08-01T02:26:10.720Z,5.03
2022-08-01T02:28:51.640Z,5.22
2022-08-01T02:31:21.391Z,5.60
2022-08-01T02:33:57.199Z,5.82
2022-08-01T02:36:32.081Z,4.90
2022-08-01T02:39:04.313Z,4.60
2022-08-01T02:41:32.512Z,5.57
2022-08-01T02:44:04.253Z,5.78
2022-08-01T02:46:37.279Z,4.68
2022-08-01T02:49:06.176Z,4.97
2022-08-01T02:51:35.333Z,5.18
2022-08-01T02:54:04.162Z,5.18
2022-08-01T02:56:36.012Z,5.05
2022-08-01T02:59:10.106Z,4.85
2022-08-01T03:01:37.203Z,4.78
2022-08-01T03:04:06.238Z,4.32
2022-08-01T03:06:34.608Z,5.28
2022-08-01T03:09:03.772Z,5.45
2022-08-01T03:11:31.749Z,5.63
2022-08-01T03:14:02.723Z,5.07
2022-08-01T03:16:29.974Z,6.05
2022-08-01T03:18:57.948Z,5.78
2022-08-01T03:21:25.377Z,5.90
2022-08-01T03:23:57.903Z,5.03
2022-08-01T03:26:29.531Z,5.05
2022-08-01T03:31:31.279Z,6.20
2022-08-01T03:33:58.574Z,6.15
2022-08-01T03:36:27.762Z,5.22
2022-08-01T03:38:58.048Z,5.97
2022-08-01T03:41:27.337Z,6.63
2022-08-01T03:44:00.678Z,5.55
2022-08-01T03:46:48.665Z,6.18
2022-08-01T03:49:21.033Z,5.50
2022-08-01T03:51:50.459Z,4.75
2022-08-01T03:54:21.247Z,4.95
2022-08-01T03:56:50.661Z,4.83
2022-08-01T03:59:17.886Z,5.32
2022-08-01T04:01:45.823Z,6.38
2022-08-01T04:04:13.347Z,6.15
2022-08-01T04:06:41.126Z,4.80
2022-08-01T04:09:13.395Z,5.25
2022-08-01T04:11:40.078Z,5.22
2022-08-01T04:14:08.607Z,4.60
2022-08-01T04:16:35.987Z,5.43
2022-08-01T04:19:02.828Z,4.00
2022-08-01T04:21:33.358Z,4.43
2022-08-01T04:24:05.868Z,4.00
2022-08-01T04:26:35.615Z,3.67
2022-08-01T04:29:05.980Z,3.15
2022-08-01T04:31:33.994Z,2.85
2022-08-01T04:34:01.953Z,2.90
2022-08-01T04:36:30.511Z,2.25
2022-08-01T04:39:00.960Z,2.70
2022-08-01T04:41:28.612Z,2.00
2022-08-01T04:43:55.968Z,2.08
2022-08-01T04:46:23.286Z,1.45
2022-08-01T04:48:51.197Z,1.42
2022-08-01T04:51:19.084Z,1.30
2022-08-01T04:53:48.929Z,1.30
2022-08-01T04:56:15.797Z,1.27
2022-08-01T04:58:43.058Z,1.58
2022-08-01T05:01:10.764Z,1.23
2022-08-01T05:03:39.198Z,1.75
2022-08-01T05:06:06.183Z,1.48
2022-08-01T05:08:32.538Z,1.80
2022-08-01T05:10:58.982Z,2.03
2022-08-01T05:13:25.416Z,1.13
2022-08-01T05:15:53.416Z,1.40
2022-08-01T05:18:27.747Z,0.95
2022-08-01T05:20:54.926Z,0.90
2022-08-01T05:23:37.747Z,1.05
2022-08-01T05:26:08.268Z,1.25
2022-08-01T05:28:37.007Z,0.98
2022-08-01T05:31:04.227Z,0.60
2022-08-01T05:33:30.606Z,0.90
2022-08-01T05:35:57.093Z,1.10
2022-08-01T05:38:23.467Z,1.88
2022-08-01T05:40:52.901Z,3.30
2022-08-01T05:43:19.271Z,3.42
2022-08-01T05:45:46.858Z,2.60
2022-08-01T05:48:13.272Z,3.20
2022-08-01T05:50:39.728Z,2.72
2022-08-01T05:53:06.136Z,3.33
2022-08-01T05:55:32.560Z,3.05
2022-08-01T05:57:58.966Z,3.50
2022-08-01T06:00:25.329Z,2.58
2022-08-01T06:02:51.707Z,2.92
2022-08-01T06:05:18.177Z,2.47
2022-08-01T06:07:44.555Z,3.00
2022-08-01T06:10:11.127Z,2.35
2022-08-01T06:12:38.034Z,3.35
2022-08-01T06:15:06.124Z,2.95
2022-08-01T06:17:32.730Z,2.83
2022-08-01T06:19:59.161Z,2.85
2022-08-01T06:22:25.692Z,2.45
2022-08-01T06:24:54.430Z,2.40
2022-08-01T06:27:21.628Z,3.15
2022-08-01T06:29:53.304Z,2.90
2022-08-01T06:32:27.376Z,3.10
2022-08-01T06:34:55.534Z,1.95
2022-08-01T06:37:22.702Z,2.80
2022-08-01T06:39:50.377Z,2.03
2022-08-01T06:42:16.932Z,2.83
2022-08-01T06:44:43.317Z,2.58
2022-08-01T06:47:09.708Z,3.00
2022-08-01T06:49:36.185Z,2.50
2022-08-01T06:52:04.294Z,3.08
2022-08-01T06:54:30.961Z,3.00
2022-08-01T06:56:57.333Z,3.60
2022-08-01T06:59:23.697Z,4.07
2022-08-01T07:01:50.196Z,3.15
2022-08-01T07:04:16.570Z,2.95
2022-08-01T07:06:42.954Z,3.05
2022-08-01T07:09:14.348Z,2.83
2022-08-01T07:11:41.460Z,3.72
2022-08-01T07:14:08.111Z,3.92
2022-08-01T07:16:34.599Z,2.55
2022-08-01T07:19:00.995Z,3.40
2022-08-01T07:21:39.000Z,2.47
2022-08-01T07:24:12.840Z,2.50
2022-08-01T07:26:52.679Z,2.47
2022-08-01T07:29:21.017Z,3.13
2022-08-01T07:31:47.411Z,3.38
2022-08-01T07:34:13.799Z,2.42
2022-08-01T07:36:40.210Z,2.65
2022-08-01T07:39:06.596Z,2.65
2022-08-01T07:41:53.874Z,3.13
2022-08-01T07:44:19.373Z,2.70
2022-08-01T07:46:45.757Z,2.05
2022-08-01T07:49:12.170Z,2.35
2022-08-01T07:51:39.186Z,2.80
2022-08-01T07:54:05.581Z,2.40
2022-08-01T07:56:32.216Z,2.40
2022-08-01T07:58:58.618Z,3.17
2022-08-01T08:01:25.317Z,2.75
2022-08-01T08:03:51.759Z,2.55
2022-08-01T08:06:18.126Z,2.22
2022-08-01T08:08:44.496Z,2.92
2022-08-01T08:11:11.133Z,2.00
2022-08-01T08:13:37.559Z,3.03
2022-08-01T08:16:04.275Z,3.03
2022-08-01T08:18:30.682Z,2.33
2022-08-01T08:20:57.148Z,2.53
2022-08-01T08:23:43.814Z,3.20
2022-08-01T08:26:12.050Z,3.22
2022-08-01T08:28:38.535Z,3.33
2022-08-01T08:31:07.730Z,3.40
2022-08-01T08:33:52.217Z,2.10
2022-08-01T08:36:18.621Z,2.28
2022-08-01T08:38:45.220Z,2.38
2022-08-01T08:41:12.747Z,2.30
2022-08-01T08:43:39.181Z,2.25
2022-08-01T08:46:08.714Z,2.35
2022-08-01T08:48:36.989Z,2.40
2022-08-01T08:51:03.924Z,2.65
2022-08-01T08:53:34.847Z,2.95
2022-08-01T08:56:02.664Z,2.47
2022-08-01T08:58:31.706Z,2.22
2022-08-01T09:00:59.687Z,2.50
2022-08-01T09:03:26.178Z,2.47
2022-08-01T09:05:52.870Z,2.60
2022-08-01T09:08:19.639Z,2.17
2022-08-01T09:10:46.236Z,2.17
2022-08-01T09:13:15.345Z,2.25
2022-08-01T09:15:51.353Z,1.80
2022-08-01T09:18:41.648Z,3.67
2022-08-01T09:21:12.541Z,2.42
2022-08-01T09:23:54.376Z,2.42
2022-08-01T09:26:35.931Z,3.03
2022-08-01T09:29:17.588Z,2.25
2022-08-01T09:34:33.957Z,1.40
2022-08-01T09:37:03.462Z,2.28
2022-08-01T09:39:32.764Z,2.42
2022-08-01T09:42:01.803Z,1.75
2022-08-01T09:44:42.493Z,2.00
2022-08-01T09:47:11.084Z,2.97
2022-08-01T09:49:50.496Z,1.95
2022-08-01T09:52:21.317Z,1.58
2022-08-01T09:54:54.029Z,2.00
2022-08-01T09:57:22.372Z,1.80
2022-08-01T09:59:58.650Z,2.40
2022-08-01T10:02:35.746Z,1.88
2022-08-01T10:05:08.351Z,2.42
2022-08-01T10:07:55.846Z,1.90
2022-08-01T10:10:28.968Z,1.90
2022-08-01T10:13:00.010Z,1.80
2022-08-01T10:15:36.891Z,2.35
2022-08-01T10:18:16.139Z,2.78
2022-08-01T10:20:48.455Z,1.80
2022-08-01T10:23:16.316Z,1.95
2022-08-01T10:25:46.918Z,2.17
2022-08-01T10:28:23.938Z,1.70
2022-08-01T10:30:52.083Z,2.08
2022-08-01T10:33:50.353Z,2.85
2022-08-01T10:36:09.796Z,2.35
2022-08-01T10:38:37.545Z,2.42
2022-08-01T10:41:06.023Z,2.33
2022-08-01T10:43:33.393Z,1.50
2022-08-01T10:46:03.039Z,2.13
2022-08-01T10:48:36.658Z,1.70
2022-08-01T10:51:18.476Z,1.88
2022-08-01T10:53:56.211Z,1.42
2022-08-01T10:56:26.392Z,1.95
2022-08-01T10:59:06.373Z,2.57
2022-08-01T11:01:38.593Z,1.77
2022-08-01T11:04:17.069Z,1.90
2022-08-01T11:06:53.014Z,1.58
2022-08-01T11:09:36.108Z,1.83
2022-08-01T11:12:06.211Z,1.65
2022-08-01T11:14:53.983Z,2.10
2022-08-01T11:17:37.989Z,1.27
2022-08-01T11:20:17.513Z,1.52
2022-08-01T11:23:02.999Z,1.40
2022-08-01T11:26:05.786Z,1.23
2022-08-01T11:28:32.402Z,2.00
2022-08-01T11:31:07.965Z,4.00
2022-08-01T11:33:46.062Z,1.98
2022-08-01T11:36:13.195Z,1.55
2022-08-01T11:38:45.544Z,1.15
2022-08-01T11:41:18.189Z,1.23
2022-08-01T11:44:03.586Z,1.63
2022-08-01T11:47:09.017Z,1.55
2022-08-01T11:49:41.954Z,1.02
2022-08-01T11:52:12.941Z,1.10
2022-08-01T11:54:40.850Z,1.92
2022-08-01T11:57:10.583Z,1.52
2022-08-01T11:59:41.306Z,1.52
2022-08-01T12:02:17.468Z,1.15
2022-08-01T12:05:11.690Z,0.73
2022-08-01T12:07:42.166Z,1.42
2022-08-01T12:10:16.758Z,1.85
2022-08-01T12:12:49.461Z,1.30
2022-08-01T12:15:19.338Z,1.27
2022-08-01T12:17:58.356Z,1.80
2022-08-01T12:20:32.082Z,1.30
2022-08-01T12:23:01.760Z,0.82
2022-08-01T12:25:29.118Z,1.20
2022-08-01T12:27:56.890Z,1.35
2022-08-01T12:30:25.133Z,1.45
2022-08-01T12:32:53.207Z,1.00
2022-08-01T12:35:23.880Z,1.33
2022-08-01T12:37:56.050Z,0.73
2022-08-01T12:40:34.483Z,1.40
2022-08-01T12:43:03.294Z,1.20
2022-08-01T12:45:33.792Z,1.00
2022-08-01T12:48:01.717Z,1.00
2022-08-01T12:50:30.857Z,1.00
2022-08-01T12:52:58.524Z,1.30
2022-08-01T12:55:33.809Z,1.02
2022-08-01T12:58:16.074Z,1.40
2022-08-01T13:00:45.363Z,0.68
2022-08-01T13:03:15.926Z,1.13
2022-08-01T13:05:43.205Z,0.80
2022-08-01T13:08:14.515Z,0.90
2022-08-01T13:13:08.337Z,0.70
2022-08-01T13:15:41.685Z,0.80
2022-08-01T13:18:28.107Z,0.65
2022-08-01T13:21:17.649Z,1.52
2022-08-01T13:24:13.557Z,1.02
2022-08-01T13:26:45.924Z,0.75
2022-08-01T13:29:15.585Z,0.90
2022-08-01T13:31:42.890Z,1.10
2022-08-01T13:34:09.582Z,1.85
2022-08-01T13:36:36.777Z,1.38
2022-08-01T13:39:23.752Z,1.17
2022-08-01T13:41:50.729Z,0.75
2022-08-01T13:44:17.316Z,1.20
2022-08-01T13:46:49.658Z,1.17
2022-08-01T13:49:17.914Z,1.00
2022-08-01T13:51:46.719Z,1.38
2022-08-01T13:54:13.236Z,1.48
2022-08-01T13:56:39.628Z,1.50
2022-08-01T13:59:07.487Z,1.00
2022-08-01T14:01:34.841Z,1.05
2022-08-01T14:04:02.030Z,1.08
2022-08-01T14:06:28.621Z,1.05
2022-08-01T14:08:55.101Z,1.58
2022-08-01T14:11:21.609Z,2.15
2022-08-01T14:13:48.080Z,1.40
2022-08-01T14:16:15.371Z,1.40
2022-08-01T14:18:42.052Z,0.98
2022-08-01T14:21:11.098Z,1.50
2022-08-01T14:23:37.640Z,0.98
2022-08-01T14:26:08.186Z,1.00
2022-08-01T14:28:38.804Z,2.65
2022-08-01T14:31:07.072Z,1.33
2022-08-01T14:33:34.306Z,0.90
2022-08-01T14:36:28.719Z,1.15
2022-08-01T14:38:48.052Z,0.98
2022-08-01T14:41:15.437Z,1.75
2022-08-01T14:43:41.908Z,1.52
2022-08-01T14:46:10.755Z,1.35
2022-08-01T14:48:37.232Z,1.25
2022-08-01T14:51:05.002Z,1.05
2022-08-01T14:53:34.191Z,1.45
2022-08-01T14:56:02.637Z,2.20
2022-08-01T14:58:29.131Z,2.53
2022-08-01T15:00:58.845Z,2.50
2022-08-01T15:03:25.496Z,1.30
2022-08-01T15:05:51.909Z,1.10
2022-08-01T15:08:18.307Z,1.35
2022-08-01T15:10:44.736Z,1.58
2022-08-01T15:13:11.119Z,1.27
2022-08-01T15:15:37.577Z,0.75
2022-08-01T15:18:04.181Z,1.05
2022-08-01T15:20:31.028Z,1.17
2022-08-01T15:22:57.664Z,0.65
2022-08-01T15:25:24.081Z,1.08
2022-08-01T15:27:53.012Z,1.13
2022-08-01T15:30:23.526Z,1.25
2022-08-01T15:32:54.026Z,0.80
2022-08-01T15:35:20.506Z,1.30
2022-08-01T15:37:46.957Z,1.00
2022-08-01T15:40:13.440Z,1.20
2022-08-01T15:42:39.955Z,1.40
2022-08-01T15:45:10.625Z,1.02
2022-08-01T15:47:42.906Z,1.38
2022-08-01T15:50:09.549Z,0.90
2022-08-01T15:52:36.066Z,1.48
2022-08-01T15:55:03.378Z,1.30
2022-08-01T15:57:29.794Z,1.15
2022-08-01T15:59:56.194Z,1.33
2022-08-01T16:02:22.734Z,1.65
2022-08-01T16:04:49.151Z,1.42
2022-08-01T16:07:15.554Z,0.93
2022-08-01T16:09:42.184Z,1.30
2022-08-01T16:12:10.091Z,1.10
2022-08-01T16:14:36.780Z,1.10
2022-08-01T16:17:03.283Z,1.15
2022-08-01T16:19:29.887Z,1.13
2022-08-01T16:21:56.318Z,1.05
2022-08-01T16:24:23.613Z,1.27
2022-08-01T16:26:49.965Z,0.85
2022-08-01T16:29:16.406Z,1.15
2022-08-01T16:32:01.883Z,0.82
2022-08-01T16:34:29.158Z,1.23
2022-08-01T16:36:55.598Z,1.15
2022-08-01T16:39:23.561Z,1.52
2022-08-01T16:41:50.525Z,1.10
2022-08-01T16:44:33.288Z,1.55
2022-08-01T16:47:05.290Z,2.22
2022-08-01T16:49:32.349Z,1.83
2022-08-01T16:51:58.877Z,1.80
2022-08-01T16:54:26.418Z,1.17
2022-08-01T16:56:53.884Z,1.38
2022-08-01T16:59:20.379Z,2.13
2022-08-01T17:01:59.536Z,2.03
2022-08-01T17:04:31.673Z,1.00
2022-08-01T17:06:58.160Z,1.05
2022-08-01T17:09:24.708Z,1.00
2022-08-01T17:11:51.405Z,1.45
2022-08-01T17:14:17.934Z,1.35
2022-08-01T17:16:44.409Z,3.28
2022-08-01T17:19:10.889Z,1.90
2022-08-01T17:21:41.189Z,1.30
2022-08-01T17:24:08.458Z,1.60
2022-08-01T17:26:35.114Z,1.50
2022-08-01T17:29:01.495Z,1.40
2022-08-01T17:31:28.096Z,1.13
2022-08-01T17:33:55.303Z,4.43
2022-08-01T17:36:22.159Z,1.45
2022-08-01T17:38:48.659Z,2.03
2022-08-01T17:41:15.212Z,1.85
2022-08-01T17:43:41.826Z,3.92
2022-08-01T17:46:08.380Z,13.45
2022-08-01T17:48:34.795Z,3.17
2022-08-01T17:51:01.226Z,1.50
2022-08-01T17:53:30.651Z,1.55
2022-08-01T17:55:58.763Z,4.18
2022-08-01T17:58:36.608Z,2.90
2022-08-01T18:01:13.977Z,1.30
2022-08-01T18:03:41.442Z,3.22
2022-08-01T18:06:09.560Z,2.00
2022-08-01T18:08:36.323Z,1.88
2022-08-01T18:11:04.825Z,2.55
2022-08-01T18:13:31.617Z,1.50
2022-08-01T18:15:58.044Z,2.65
2022-08-01T18:18:33.455Z,2.00
2022-08-01T18:21:00.614Z,1.33
2022-08-01T18:23:27.051Z,1.35
2022-08-01T18:25:53.914Z,1.33
2022-08-01T18:28:31.253Z,2.97
2022-08-01T18:30:59.545Z,2.72
2022-08-01T18:33:25.919Z,1.80
2022-08-01T18:35:53.776Z,1.67
2022-08-01T18:38:20.872Z,1.15
2022-08-01T18:40:52.493Z,1.63
2022-08-01T18:43:18.933Z,1.20
2022-08-01T18:45:45.348Z,1.60
2022-08-01T18:48:11.967Z,1.98
2022-08-01T18:50:39.658Z,1.10
2022-08-01T18:53:09.034Z,1.10
2022-08-01T18:55:35.486Z,1.08
2022-08-01T18:58:02.040Z,2.53
2022-08-01T19:00:28.473Z,1.60
2022-08-01T19:02:55.196Z,1.20
2022-08-01T19:05:21.602Z,1.05
2022-08-01T19:08:06.089Z,1.20
2022-08-01T19:10:39.466Z,0.90
2022-08-01T19:13:07.706Z,1.80
2022-08-01T19:15:35.269Z,1.50
2022-08-01T19:18:02.197Z,0.85
2022-08-01T19:20:29.126Z,1.10
2022-08-01T19:22:56.138Z,1.42
2022-08-01T19:25:24.326Z,0.98
2022-08-01T19:27:50.929Z,1.00
2022-08-01T19:30:20.468Z,1.00
2022-08-01T19:32:48.855Z,1.30
2022-08-01T19:35:16.911Z,0.70
2022-08-01T19:37:46.927Z,1.30
2022-08-01T19:40:26.697Z,1.30
2022-08-01T19:42:54.799Z,0.90
2022-08-01T19:45:21.830Z,1.75
2022-08-01T19:47:52.278Z,0.90
2022-08-01T19:50:23.494Z,1.27
2022-08-01T19:52:52.682Z,1.60
2022-08-01T19:55:21.560Z,1.30
2022-08-01T19:58:16.921Z,1.83
2022-08-01T20:00:38.400Z,2.20
2022-08-01T20:03:05.570Z,1.13
2022-08-01T20:05:32.106Z,1.30
2022-08-01T20:07:58.826Z,1.33
2022-08-01T20:10:25.515Z,1.38
2022-08-01T20:12:53.590Z,1.15
2022-08-01T20:15:22.255Z,1.63
2022-08-01T20:17:48.684Z,1.40
2022-08-01T20:20:15.091Z,1.50
2022-08-01T20:22:41.981Z,1.02
2022-08-01T20:25:09.652Z,1.15
2022-08-01T20:27:38.752Z,0.88
2022-08-01T20:30:05.605Z,1.10
2022-08-01T20:32:34.237Z,0.90
2022-08-01T20:35:01.598Z,1.85
2022-08-01T20:38:05.526Z,1.23
2022-08-01T20:40:21.958Z,1.50
2022-08-01T20:42:51.730Z,1.42
2022-08-01T20:45:18.817Z,1.48
2022-08-01T20:47:46.805Z,1.45
2022-08-01T20:50:53.261Z,1.30
2022-08-01T20:53:18.790Z,1.42
2022-08-01T20:55:49.480Z,2.53
2022-08-01T20:58:27.468Z,1.23
2022-08-01T21:00:56.627Z,1.67
2022-08-01T21:03:36.210Z,1.52
2022-08-01T21:06:13.668Z,1.65
2022-08-01T21:08:47.326Z,1.58
2022-08-01T21:11:19.384Z,1.23
2022-08-01T21:13:49.089Z,1.75
2022-08-01T21:16:24.511Z,1.98
2022-08-01T21:19:19.002Z,1.15
2022-08-01T21:21:50.260Z,1.70
2022-08-01T21:24:18.881Z,1.20
2022-08-01T21:26:48.630Z,1.17
2022-08-01T21:29:17.070Z,1.30
2022-08-01T21:31:46.408Z,1.08
2022-08-01T21:34:15.078Z,1.98
2022-08-01T21:36:44.091Z,1.60
2022-08-01T21:39:10.734Z,2.40
2022-08-01T21:41:56.311Z,1.50
2022-08-01T21:44:29.089Z,1.55
2022-08-01T21:46:59.228Z,2.42
2022-08-01T21:49:26.050Z,2.63
2022-08-01T21:52:09.384Z,2.30
2022-08-01T21:54:56.833Z,2.85
2022-08-01T21:57:40.688Z,1.70
2022-08-01T22:00:25.217Z,1.92
2022-08-01T22:03:14.011Z,2.20
2022-08-01T22:05:51.008Z,2.13
2022-08-01T22:08:35.785Z,2.70
2022-08-01T22:11:08.132Z,2.30
2022-08-01T22:13:35.726Z,2.30
2022-08-01T22:16:04.565Z,3.47
2022-08-01T22:18:32.941Z,2.90
2022-08-01T22:21:01.349Z,2.63
2022-08-01T22:23:27.991Z,2.40
2022-08-01T22:25:55.729Z,2.75
2022-08-01T22:28:23.725Z,2.85
2022-08-01T22:30:51.650Z,2.78
2022-08-01T22:33:18.574Z,3.50
2022-08-01T22:35:47.302Z,2.47
2022-08-01T22:38:14.357Z,3.33
2022-08-01T22:40:50.770Z,2.70
2022-08-01T22:43:56.972Z,2.97
2022-08-01T22:46:53.415Z,2.72
2022-08-01T22:49:32.039Z,2.75
2022-08-01T22:52:07.672Z,3.03
2022-08-01T22:54:39.953Z,3.20
2022-08-01T22:57:23.921Z,2.53
2022-08-01T23:00:02.421Z,2.67
2022-08-01T23:02:30.710Z,3.20
2022-08-01T23:05:24.383Z,3.53
2022-08-01T23:07:54.087Z,3.38
2022-08-01T23:10:22.378Z,3.92
2022-08-01T23:12:51.323Z,3.10
2022-08-01T23:15:19.241Z,2.78
2022-08-01T23:17:47.166Z,2.95
2022-08-01T23:20:14.640Z,2.92
2022-08-01T23:22:42.063Z,3.05
2022-08-01T23:25:13.959Z,2.70
2022-08-01T23:28:03.372Z,2.67
2022-08-01T23:30:31.665Z,2.88
2022-08-01T23:32:59.000Z,3.10
2022-08-01T23:35:26.732Z,4.00
2022-08-01T23:37:55.882Z,3.05
2022-08-01T23:40:28.848Z,3.03
2022-08-01T23:42:55.748Z,2.85
2022-08-01T23:45:23.438Z,3.20
2022-08-01T23:47:50.061Z,3.00
2022-08-01T23:50:16.483Z,3.08
2022-08-01T23:52:49.863Z,2.80
2022-08-01T23:55:27.780Z,2.65
2022-08-01T23:58:06.237Z,2.47
